Maersk Eureka — 2FFG5 — position and weather

sailwx.info

Track history (hours):
 
Tides and Currents Weather Stations Pressure Air Temp Water Temp Dewpoint Dewpoint Depression Visibility Wind Speed Wind Dir Waves Ship Positions

Maersk Eureka

Last reported at 2017-Dec-11 13:19 UTC. Time now 2017-Dec-18 01:37 UTC.
Position N 01°17' E 104°13'.

Length 366 m; draft 12.1 m.

Type: Ship (hazmat cat A). MMSI: 235090767.

Date/timePositionNaut miles runAvg speedWind from/ knotsBaromVisibWave heightAir tempDewpointWater temp
2017-Dec-11 13:19N 01°17' E 104°13'917.2
2017-Dec-11 12:49N 01°15' E 104°04'414.1
2017-Dec-11 12:30N 01°15' E 103°60'713.9
2017-Dec-11 12:00N 01°12' E 103°53'815.2
2017-Dec-11 11:30N 01°09' E 103°47'714.8
2017-Dec-11 11:00N 01°04' E 103°41'713.5
2017-Dec-11 10:30N 01°06' E 103°34'714.0
2017-Dec-11 10:00N 01°12' E 103°30'510.8
2017-Dec-11 09:30N 01°17' E 103°33'4 7.0
2017-Dec-11 09:00N 01°20' E 103°33'0 0.4
2017-Dec-11 08:30N 01°20' E 103°33'0 0.0
2017-Dec-11 07:59N 01°20' E 103°33'0 0.0
2017-Dec-11 07:30N 01°20' E 103°33'0 0.1
2017-Dec-11 07:00N 01°20' E 103°33'0 0.1
2017-Dec-11 06:21N 01°20' E 103°33'0 0.0
2017-Dec-11 05:54N 01°20' E 103°33'0 0.0
2017-Dec-11 05:27N 01°20' E 103°33'0 0.1
2017-Dec-11 04:57N 01°20' E 103°33'0 0.0
2017-Dec-10 23:57N 01°20' E 103°33'0 0.0
2017-Dec-10 19:48N 01°20' E 103°33'0 0.0
2017-Dec-10 19:18N 01°20' E 103°33'0 0.0
2017-Dec-10 04:54N 01°20' E 103°33'0 0.0
2017-Dec-10 01:36N 01°20' E 103°33'0 0.1
2017-Dec-10 01:09N 01°20' E 103°33'0 0.0
2017-Dec-10 00:57N 01°20' E 103°33'0 0.0
2017-Dec-09 23:34N 01°20' E 103°33'0 0.0
2017-Dec-09 23:30N 01°20' E 103°33'1 1.9
2017-Dec-09 23:00N 01°19' E 103°33'4 8.4
2017-Dec-09 22:30N 01°15' E 103°32'2 3.1
2017-Dec-09 22:01N 01°14' E 103°32'4 7.2
2017-Dec-09 21:30N 01°11' E 103°29'610.9
2017-Dec-09 20:59N 01°13' E 103°24'  
Track history (hours):
 
Tides and Currents Weather Stations Pressure Air Temp Water Temp Dewpoint Dewpoint Depression Visibility Wind Speed Wind Dir Waves Ship Positions

Maersk Eureka

Last reported at 2017-Dec-11 13:19 UTC. Time now 2017-Dec-18 01:37 UTC.
Position N 01°17' E 104°13'.

Length 366 m; draft 12.1 m.

Type: Ship (hazmat cat A). MMSI: 235090767.

Date/timePositionNaut miles runAvg speedWind from/ knotsBaromVisibWave heightAir tempDewpointWater temp
2017-Dec-11 13:19N 01°17' E 104°13'917.2
2017-Dec-11 12:49N 01°15' E 104°04'414.1
2017-Dec-11 12:30N 01°15' E 103°60'713.9
2017-Dec-11 12:00N 01°12' E 103°53'815.2
2017-Dec-11 11:30N 01°09' E 103°47'714.8
2017-Dec-11 11:00N 01°04' E 103°41'713.5
2017-Dec-11 10:30N 01°06' E 103°34'714.0
2017-Dec-11 10:00N 01°12' E 103°30'510.8
2017-Dec-11 09:30N 01°17' E 103°33'4 7.0
2017-Dec-11 09:00N 01°20' E 103°33'0 0.4
2017-Dec-11 08:30N 01°20' E 103°33'0 0.0
2017-Dec-11 07:59N 01°20' E 103°33'0 0.0
2017-Dec-11 07:30N 01°20' E 103°33'0 0.1
2017-Dec-11 07:00N 01°20' E 103°33'0 0.1
2017-Dec-11 06:21N 01°20' E 103°33'0 0.0
2017-Dec-11 05:54N 01°20' E 103°33'0 0.0
2017-Dec-11 05:27N 01°20' E 103°33'0 0.1
2017-Dec-11 04:57N 01°20' E 103°33'0 0.0
2017-Dec-10 23:57N 01°20' E 103°33'0 0.0
2017-Dec-10 19:48N 01°20' E 103°33'0 0.0
2017-Dec-10 19:18N 01°20' E 103°33'0 0.0
2017-Dec-10 04:54N 01°20' E 103°33'0 0.0
2017-Dec-10 01:36N 01°20' E 103°33'0 0.1
2017-Dec-10 01:09N 01°20' E 103°33'0 0.0
2017-Dec-10 00:57N 01°20' E 103°33'0 0.0
2017-Dec-09 23:34N 01°20' E 103°33'0 0.0
2017-Dec-09 23:30N 01°20' E 103°33'1 1.9
2017-Dec-09 23:00N 01°19' E 103°33'4 8.4
2017-Dec-09 22:30N 01°15' E 103°32'2 3.1
2017-Dec-09 22:01N 01°14' E 103°32'4 7.2
2017-Dec-09 21:30N 01°11' E 103°29'610.9
2017-Dec-09 20:59N 01°13' E 103°24'  

Dump ship's entire track history